createdAt,value
2019-03-17T00:00:42.451Z,94824.17
2019-03-17T00:03:12.049Z,94826.50
2019-03-17T00:05:41.565Z,94820.22
2019-03-17T00:08:11.438Z,94823.26
2019-03-17T00:10:41.080Z,94835.33
2019-03-17T00:13:10.570Z,94838.70
2019-03-17T00:15:40.057Z,94837.41
2019-03-17T00:18:09.483Z,94835.66
2019-03-17T00:20:38.943Z,94830.14
2019-03-17T00:23:08.469Z,94824.13
2019-03-17T00:25:39.337Z,94821.54
2019-03-17T00:28:08.796Z,94815.69
2019-03-17T00:30:38.368Z,94823.09
2019-03-17T00:33:08.030Z,94822.10
2019-03-17T00:35:37.518Z,94815.58
2019-03-17T00:38:07.099Z,94824.05
2019-03-17T00:40:36.513Z,94819.88
2019-03-17T00:43:06.034Z,94816.84
2019-03-17T00:45:35.530Z,94817.63
2019-03-17T00:48:05.100Z,94817.47
2019-03-17T00:50:34.689Z,94814.89
2019-03-17T00:53:04.252Z,94810.48
2019-03-17T00:55:33.752Z,94814.05
2019-03-17T00:58:03.295Z,94811.88
2019-03-17T01:00:32.952Z,94798.28
2019-03-17T01:03:02.441Z,94798.81
2019-03-17T01:05:32.056Z,94804.59
2019-03-17T01:08:01.718Z,94796.96
2019-03-17T01:10:31.434Z,94813.14
2019-03-17T01:13:00.862Z,94801.39
2019-03-17T01:15:30.554Z,94803.61
2019-03-17T01:18:00.052Z,94806.98
2019-03-17T01:20:29.575Z,94811.61
2019-03-17T01:23:00.201Z,94817.14
2019-03-17T01:25:29.689Z,94823.22
2019-03-17T01:27:59.177Z,94824.61
2019-03-17T01:30:28.953Z,94839.72
2019-03-17T01:32:58.449Z,94842.80
2019-03-17T01:35:27.990Z,94842.75
2019-03-17T01:37:57.482Z,94848.50
2019-03-17T01:40:27.015Z,94849.84
2019-03-17T01:42:56.604Z,94842.50
2019-03-17T01:45:26.177Z,94846.86
2019-03-17T01:47:55.657Z,94841.31
2019-03-17T01:50:25.183Z,94852.80
2019-03-17T01:52:54.747Z,94857.26
2019-03-17T01:55:24.240Z,94862.84
2019-03-17T01:57:53.771Z,94873.39
2019-03-17T02:00:23.194Z,94857.80
2019-03-17T02:02:52.611Z,94855.58
2019-03-17T02:05:22.660Z,94846.95
2019-03-17T02:07:53.673Z,94842.80
2019-03-17T02:10:23.129Z,94856.63
2019-03-17T02:12:52.684Z,94861.64
2019-03-17T02:15:23.218Z,94869.06
2019-03-17T02:17:52.895Z,94855.22
2019-03-17T02:20:22.324Z,94864.77
2019-03-17T02:22:51.748Z,94864.77
2019-03-17T02:25:21.352Z,94862.58
2019-03-17T02:27:50.775Z,94870.89
2019-03-17T02:30:20.271Z,94864.97
2019-03-17T02:32:49.732Z,94863.57
2019-03-17T02:35:19.159Z,94850.20
2019-03-17T02:37:48.655Z,94861.59
2019-03-17T02:40:18.130Z,94859.39
2019-03-17T02:42:47.627Z,94857.61
2019-03-17T02:45:17.177Z,94864.34
2019-03-17T02:47:46.724Z,94869.50
2019-03-17T02:50:16.368Z,94870.98
2019-03-17T02:52:45.788Z,94872.16
2019-03-17T02:55:15.341Z,94879.70
2019-03-17T02:57:44.878Z,94884.96
2019-03-17T03:00:18.226Z,94889.02
2019-03-17T03:02:45.788Z,94891.17
2019-03-17T03:05:15.348Z,94893.76
2019-03-17T03:07:44.778Z,94900.49
2019-03-17T03:10:14.411Z,94899.82
2019-03-17T03:12:43.953Z,94917.17
2019-03-17T03:15:13.445Z,94912.29
2019-03-17T03:17:42.941Z,94913.20
2019-03-17T03:20:12.433Z,94930.95
2019-03-17T03:22:41.912Z,94935.23
2019-03-17T03:25:11.385Z,94942.55
2019-03-17T03:27:41.193Z,94958.34
2019-03-17T03:30:12.749Z,94951.61
2019-03-17T03:32:45.018Z,94966.14
2019-03-17T03:35:14.773Z,94969.38
2019-03-17T03:37:44.308Z,94976.22
2019-03-17T03:40:13.861Z,94971.89
2019-03-17T03:42:43.488Z,94968.75
2019-03-17T03:45:13.690Z,94957.84
2019-03-17T03:47:43.277Z,94949.04
2019-03-17T03:50:12.971Z,94937.22
2019-03-17T03:52:42.444Z,94937.02
2019-03-17T03:55:12.064Z,94933.27
2019-03-17T03:57:41.524Z,94926.95
2019-03-17T04:00:16.093Z,94930.94
2019-03-17T04:02:46.656Z,94921.22
2019-03-17T04:05:16.197Z,94918.55
2019-03-17T04:07:45.827Z,94916.47
2019-03-17T04:10:15.506Z,94929.16
2019-03-17T04:12:45.075Z,94920.82
2019-03-17T04:15:14.860Z,94926.96
2019-03-17T04:17:44.297Z,94921.92
2019-03-17T04:20:13.868Z,94929.65
2019-03-17T04:22:43.421Z,94926.31
2019-03-17T04:25:17.611Z,94924.30
2019-03-17T04:27:47.139Z,94934.23
2019-03-17T04:30:16.751Z,94927.59
2019-03-17T04:32:46.361Z,94932.15
2019-03-17T04:35:15.925Z,94928.47
2019-03-17T04:37:45.629Z,94932.42
2019-03-17T04:40:15.125Z,94932.53
2019-03-17T04:42:44.610Z,94925.41
2019-03-17T04:45:14.845Z,94940.26
2019-03-17T04:47:44.430Z,94929.84
2019-03-17T04:50:14.109Z,94931.63
2019-03-17T04:52:43.785Z,94936.20
2019-03-17T04:55:13.345Z,94928.95
2019-03-17T04:57:42.900Z,94935.61
2019-03-17T05:00:13.994Z,94938.16
2019-03-17T05:02:43.493Z,94948.17
2019-03-17T05:05:14.294Z,94951.05
2019-03-17T05:07:43.784Z,94950.48
2019-03-17T05:10:13.279Z,94957.70
2019-03-17T05:12:43.005Z,94962.23
2019-03-17T05:15:12.606Z,94966.41
2019-03-17T05:17:42.278Z,94970.47
2019-03-17T05:20:11.980Z,94985.25
2019-03-17T05:22:41.622Z,94991.59
2019-03-17T05:25:11.197Z,94991.40
2019-03-17T05:27:40.733Z,95003.52
2019-03-17T05:30:11.919Z,95000.77
2019-03-17T05:32:41.581Z,94991.10
2019-03-17T05:35:11.213Z,95002.16
2019-03-17T05:37:40.712Z,94988.06
2019-03-17T05:40:10.789Z,94985.67
2019-03-17T05:42:40.988Z,94976.07
2019-03-17T05:45:10.930Z,94991.88
2019-03-17T05:47:40.439Z,94983.17
2019-03-17T05:50:10.737Z,94981.61
2019-03-17T05:52:40.401Z,94965.41
2019-03-17T05:55:10.553Z,94981.69
2019-03-17T05:57:40.126Z,94968.72
2019-03-17T06:00:12.570Z,94959.42
2019-03-17T06:02:42.134Z,94964.40
2019-03-17T06:05:11.727Z,94958.19
2019-03-17T06:07:41.221Z,94962.05
2019-03-17T06:10:10.784Z,94962.41
2019-03-17T06:12:40.318Z,94962.01
2019-03-17T06:15:12.880Z,94955.31
2019-03-17T06:17:42.457Z,94966.42
2019-03-17T06:20:12.811Z,94976.11
2019-03-17T06:22:42.626Z,94955.67
2019-03-17T06:25:12.210Z,94948.58
2019-03-17T06:27:41.753Z,94959.35
2019-03-17T06:30:13.150Z,94959.99
2019-03-17T06:32:42.642Z,94959.04
2019-03-17T06:35:12.203Z,94968.31
2019-03-17T06:37:41.770Z,94946.81
2019-03-17T06:40:13.034Z,94942.52
2019-03-17T06:42:42.899Z,94950.76
2019-03-17T06:45:12.427Z,94948.22
2019-03-17T06:47:43.315Z,94955.98
2019-03-17T06:50:15.506Z,94937.41
2019-03-17T06:52:44.958Z,94954.98
2019-03-17T06:55:16.261Z,94959.27
2019-03-17T06:57:45.836Z,94954.66
2019-03-17T07:00:16.593Z,94962.75
2019-03-17T07:02:55.264Z,94954.27
2019-03-17T07:05:26.523Z,94957.11
2019-03-17T07:07:56.095Z,94950.08
2019-03-17T07:10:25.570Z,94955.97
2019-03-17T07:12:55.072Z,94954.11
2019-03-17T07:15:25.923Z,94952.95
2019-03-17T07:17:55.414Z,94939.25
2019-03-17T07:20:25.056Z,94951.91
2019-03-17T07:22:54.588Z,94948.47
2019-03-17T07:25:24.022Z,94944.55
2019-03-17T07:27:53.458Z,94940.38
2019-03-17T07:30:22.988Z,94926.34
2019-03-17T07:32:54.164Z,94927.58
2019-03-17T07:35:24.016Z,94940.02
2019-03-17T07:37:57.021Z,94933.80
2019-03-17T07:40:24.980Z,94932.58
2019-03-17T07:42:54.637Z,94919.05
2019-03-17T07:45:24.382Z,94930.45
2019-03-17T07:47:53.991Z,94936.98
2019-03-17T07:50:23.617Z,94924.89
2019-03-17T07:52:53.195Z,94927.87
2019-03-17T08:02:50.295Z,94943.75
2019-03-17T08:05:19.801Z,94936.62
2019-03-17T08:15:13.960Z,94915.08
2019-03-17T08:17:43.601Z,94915.89
2019-03-17T08:20:13.667Z,94916.19
2019-03-17T08:22:43.246Z,94918.06
2019-03-17T08:25:12.860Z,94920.71
2019-03-17T08:27:42.437Z,94908.65
2019-03-17T08:30:14.600Z,94907.65
2019-03-17T08:32:44.174Z,94906.28
2019-03-17T08:35:13.737Z,94884.41
2019-03-17T08:37:43.166Z,94882.95
2019-03-17T08:40:19.284Z,94891.28
2019-03-17T08:42:48.825Z,94893.06
2019-03-17T08:45:19.901Z,94891.84
2019-03-17T08:47:57.857Z,94897.69
2019-03-17T08:50:20.563Z,94884.73
2019-03-17T08:52:49.989Z,94892.11
2019-03-17T08:55:19.482Z,94882.70
2019-03-17T08:57:49.001Z,94878.06
2019-03-17T09:00:20.036Z,94876.09
2019-03-17T09:02:49.534Z,94881.83
2019-03-17T09:05:19.199Z,94882.31
2019-03-17T09:07:48.757Z,94870.47
2019-03-17T09:10:18.406Z,94871.30
2019-03-17T09:12:47.864Z,94866.84
2019-03-17T09:15:18.615Z,94869.89
2019-03-17T09:17:48.200Z,94870.22
2019-03-17T09:20:17.786Z,94869.05
2019-03-17T09:22:47.501Z,94866.73
2019-03-17T09:25:17.114Z,94863.57
2019-03-17T09:27:46.675Z,94859.17
2019-03-17T09:30:19.913Z,94854.47
2019-03-17T09:32:49.335Z,94860.83
2019-03-17T09:35:18.900Z,94854.25
2019-03-17T09:37:48.489Z,94850.35
2019-03-17T09:40:18.455Z,94852.80
2019-03-17T09:42:48.108Z,94838.13
2019-03-17T09:45:17.939Z,94837.88
2019-03-17T09:47:47.593Z,94838.12
2019-03-17T09:50:20.446Z,94833.95
2019-03-17T09:52:50.013Z,94827.93
2019-03-17T09:55:19.635Z,94836.02
2019-03-17T09:57:49.121Z,94834.70
2019-03-17T10:00:20.311Z,94826.59
2019-03-17T10:02:49.880Z,94831.30
2019-03-17T10:05:19.463Z,94826.52
2019-03-17T10:07:49.054Z,94816.20
2019-03-17T10:10:22.853Z,94817.53
2019-03-17T10:12:53.779Z,94815.14
2019-03-17T10:15:23.342Z,94806.55
2019-03-17T10:17:52.830Z,94803.11
2019-03-17T10:20:22.510Z,94799.02
2019-03-17T10:22:53.641Z,94808.19
2019-03-17T10:25:23.069Z,94804.14
2019-03-17T10:27:52.569Z,94809.47
2019-03-17T10:30:22.631Z,94792.78
2019-03-17T10:32:52.180Z,94783.31
2019-03-17T10:35:21.867Z,94788.13
2019-03-17T10:37:51.507Z,94787.36
2019-03-17T10:40:21.757Z,94795.08
2019-03-17T10:42:51.547Z,94780.41
2019-03-17T10:45:21.071Z,94767.05
2019-03-17T10:47:50.578Z,94769.76
2019-03-17T10:50:21.491Z,94766.76
2019-03-17T10:52:51.305Z,94772.63
2019-03-17T10:55:20.970Z,94766.91
2019-03-17T10:57:50.455Z,94758.80
2019-03-17T11:00:21.395Z,94771.45
2019-03-17T11:02:51.261Z,94770.27
2019-03-17T11:05:20.740Z,94777.63
2019-03-17T11:07:50.478Z,94758.88
2019-03-17T11:10:20.026Z,94745.48
2019-03-17T11:12:49.693Z,94736.39
2019-03-17T11:15:23.557Z,94730.02
2019-03-17T11:17:53.057Z,94728.25
2019-03-17T11:20:22.684Z,94713.61
2019-03-17T11:22:52.227Z,94719.48
2019-03-17T11:25:21.783Z,94708.80
2019-03-17T11:27:51.374Z,94698.48
2019-03-17T11:30:22.243Z,94701.77
2019-03-17T11:32:51.744Z,94688.02
2019-03-17T11:35:21.247Z,94681.09
2019-03-17T11:37:50.866Z,94687.33
2019-03-17T11:40:22.105Z,94685.00
2019-03-17T11:45:20.049Z,94668.09
2019-03-17T11:47:50.432Z,94668.22
2019-03-17T11:50:22.009Z,94655.92
2019-03-17T11:52:52.028Z,94661.34
2019-03-17T11:55:21.628Z,94656.18
2019-03-17T11:57:51.309Z,94657.44
2019-03-17T12:00:22.141Z,94647.37
2019-03-17T12:02:51.999Z,94635.39
2019-03-17T12:05:21.562Z,94635.94
2019-03-17T12:07:51.219Z,94628.13
2019-03-17T12:10:25.150Z,94623.52
2019-03-17T12:12:54.714Z,94617.22
2019-03-17T12:15:32.381Z,94637.03
2019-03-17T12:18:02.017Z,94638.98
2019-03-17T12:20:31.675Z,94624.58
2019-03-17T12:23:01.351Z,94618.66
2019-03-17T12:25:30.996Z,94616.44
2019-03-17T12:28:00.506Z,94615.55
2019-03-17T12:30:30.005Z,94608.42
2019-03-17T12:32:59.596Z,94595.48
2019-03-17T12:35:29.178Z,94613.17
2019-03-17T12:37:58.668Z,94608.08
2019-03-17T12:40:28.201Z,94603.38
2019-03-17T12:42:57.633Z,94593.81
2019-03-17T12:45:27.874Z,94584.89
2019-03-17T12:47:57.364Z,94596.98
2019-03-17T12:50:27.495Z,94585.84
2019-03-17T12:52:57.054Z,94573.28
2019-03-17T12:55:26.656Z,94583.38
2019-03-17T12:57:56.260Z,94573.71
2019-03-17T13:00:28.708Z,94577.67
2019-03-17T13:02:58.272Z,94571.33
2019-03-17T13:05:27.775Z,94576.31
2019-03-17T13:07:57.281Z,94577.32
2019-03-17T13:10:26.932Z,94583.23
2019-03-17T13:12:56.569Z,94574.69
2019-03-17T13:15:26.020Z,94567.33
2019-03-17T13:17:55.554Z,94569.23
2019-03-17T13:20:26.335Z,94571.27
2019-03-17T13:22:56.780Z,94582.52
2019-03-17T13:25:26.445Z,94583.27
2019-03-17T13:27:56.001Z,94576.09
2019-03-17T13:30:25.607Z,94573.73
2019-03-17T13:32:55.288Z,94569.36
2019-03-17T13:35:25.013Z,94572.52
2019-03-17T13:37:54.447Z,94570.23
2019-03-17T13:40:29.274Z,94571.09
2019-03-17T13:42:57.907Z,94554.05
2019-03-17T13:45:27.533Z,94551.48
2019-03-17T13:47:57.188Z,94548.03
2019-03-17T13:50:26.936Z,94552.70
2019-03-17T13:52:56.516Z,94544.94
2019-03-17T13:55:26.154Z,94543.94
2019-03-17T13:58:00.799Z,94549.13
2019-03-17T14:00:30.591Z,94544.28
2019-03-17T14:03:00.084Z,94538.20
2019-03-17T14:05:29.620Z,94529.53
2019-03-17T14:07:59.215Z,94538.30
2019-03-17T14:10:40.470Z,94530.94
2019-03-17T14:13:00.116Z,94527.37
2019-03-17T14:15:29.678Z,94534.51
2019-03-17T14:17:59.106Z,94530.94
2019-03-17T14:20:28.730Z,94522.48
2019-03-17T14:22:58.157Z,94526.74
2019-03-17T14:25:32.564Z,94522.66
2019-03-17T14:28:02.062Z,94512.39
2019-03-17T14:30:31.692Z,94503.66
2019-03-17T14:33:01.363Z,94511.84
2019-03-17T14:35:32.301Z,94514.91
2019-03-17T14:38:01.919Z,94514.31
2019-03-17T14:40:31.481Z,94525.02
2019-03-17T14:43:01.004Z,94519.31
2019-03-17T14:45:30.496Z,94517.69
2019-03-17T14:47:59.917Z,94515.53
2019-03-17T14:50:30.005Z,94500.93
2019-03-17T14:53:00.874Z,94515.75
2019-03-17T14:55:31.671Z,94519.57
2019-03-17T14:58:01.095Z,94504.69
2019-03-17T15:00:30.591Z,94500.81
2019-03-17T15:03:00.187Z,94512.90
2019-03-17T15:05:29.918Z,94516.88
2019-03-17T15:07:59.701Z,94509.45
2019-03-17T15:10:30.335Z,94518.97
2019-03-17T15:12:59.936Z,94512.84
2019-03-17T15:15:29.420Z,94518.44
2019-03-17T15:17:58.918Z,94521.04
2019-03-17T15:20:28.780Z,94529.58
2019-03-17T15:22:58.432Z,94525.23
2019-03-17T15:25:28.010Z,94518.44
2019-03-17T15:27:57.845Z,94513.00
2019-03-17T15:30:32.574Z,94526.23
2019-03-17T15:33:02.057Z,94530.70
2019-03-17T15:35:31.613Z,94528.98
2019-03-17T15:38:01.113Z,94539.53
2019-03-17T15:40:30.609Z,94539.67
2019-03-17T15:43:00.105Z,94540.16
2019-03-17T15:45:30.511Z,94551.55
2019-03-17T15:48:00.092Z,94550.39
2019-03-17T15:50:30.566Z,94553.59
2019-03-17T15:53:00.311Z,94562.14
2019-03-17T15:55:30.107Z,94571.47
2019-03-17T15:58:00.349Z,94572.06
2019-03-17T16:00:30.086Z,94575.64
2019-03-17T16:02:59.631Z,94584.87
2019-03-17T16:05:29.204Z,94584.89
2019-03-17T16:07:58.748Z,94583.41
2019-03-17T16:10:32.676Z,94589.44
2019-03-17T16:13:02.180Z,94596.52
2019-03-17T16:15:31.750Z,94597.84
2019-03-17T16:18:01.249Z,94593.16
2019-03-17T16:20:30.826Z,94599.94
2019-03-17T16:23:00.333Z,94597.03
2019-03-17T16:25:36.575Z,94605.35
2019-03-17T16:28:06.201Z,94605.30
2019-03-17T16:30:35.942Z,94610.73
2019-03-17T16:33:07.289Z,94618.69
2019-03-17T16:35:36.875Z,94602.10
2019-03-17T16:38:06.432Z,94621.07
2019-03-17T16:40:36.556Z,94630.41
2019-03-17T16:43:06.381Z,94620.91
2019-03-17T16:45:35.891Z,94632.28
2019-03-17T16:48:05.744Z,94629.36
2019-03-17T16:50:35.363Z,94634.14
2019-03-17T16:53:05.056Z,94637.55
2019-03-17T16:55:34.622Z,94635.67
2019-03-17T16:58:05.625Z,94642.90
2019-03-17T17:00:35.270Z,94649.25
2019-03-17T17:03:05.018Z,94643.75
2019-03-17T17:05:35.175Z,94644.30
2019-03-17T17:08:05.120Z,94649.17
2019-03-17T17:10:38.329Z,94653.22
2019-03-17T17:13:06.424Z,94661.39
2019-03-17T17:15:37.834Z,94661.08
2019-03-17T17:18:07.826Z,94668.13
2019-03-17T17:20:41.512Z,94665.47
2019-03-17T17:23:23.589Z,94661.23
2019-03-17T17:25:51.299Z,94592.53
2019-03-17T17:28:36.514Z,94661.99
2019-03-17T17:31:37.909Z,94679.61
2019-03-17T17:34:09.539Z,94675.98
2019-03-17T17:36:39.122Z,94681.25
2019-03-17T17:39:09.211Z,94683.13
2019-03-17T17:41:38.805Z,94689.80
2019-03-17T17:44:09.570Z,94691.63
2019-03-17T17:46:39.128Z,94691.20
2019-03-17T17:49:08.555Z,94689.70
2019-03-17T17:51:38.410Z,94696.88
2019-03-17T17:54:07.850Z,94697.70
2019-03-17T17:56:37.467Z,94702.67
2019-03-17T17:59:07.260Z,94701.19
2019-03-17T18:01:37.127Z,94693.64
2019-03-17T18:04:06.788Z,94695.80
2019-03-17T18:06:36.330Z,94697.98
2019-03-17T18:09:07.876Z,94692.20
2019-03-17T18:11:37.532Z,94697.58
2019-03-17T18:14:07.131Z,94692.11
2019-03-17T18:16:36.761Z,94694.58
2019-03-17T18:19:06.277Z,94693.41
2019-03-17T18:21:36.262Z,94695.11
2019-03-17T18:24:07.145Z,94696.82
2019-03-17T18:26:36.847Z,94701.94
2019-03-17T18:29:06.580Z,94699.50
2019-03-17T18:31:36.001Z,94708.62
2019-03-17T18:34:05.580Z,94704.23
2019-03-17T18:36:35.223Z,94701.28
2019-03-17T18:39:06.942Z,94696.81
2019-03-17T18:41:36.619Z,94700.20
2019-03-17T18:44:06.307Z,94695.66
2019-03-17T18:46:35.933Z,94698.22
2019-03-17T18:49:05.715Z,94697.75
2019-03-17T18:51:35.366Z,94692.26
2019-03-17T18:54:05.678Z,94694.81
2019-03-17T18:56:35.900Z,94695.20
2019-03-17T18:59:05.505Z,94688.37
2019-03-17T19:01:40.220Z,94687.23
2019-03-17T19:04:09.880Z,94681.93
2019-03-17T19:06:39.542Z,94688.34
2019-03-17T19:09:09.103Z,94675.45
2019-03-17T19:11:38.893Z,94675.98
2019-03-17T19:14:08.502Z,94679.60
2019-03-17T19:16:38.101Z,94675.66
2019-03-17T19:19:09.242Z,94674.41
2019-03-17T19:21:38.846Z,94676.87
2019-03-17T19:24:08.385Z,94670.58
2019-03-17T19:26:37.964Z,94674.84
2019-03-17T19:29:07.563Z,94678.69
2019-03-17T19:31:38.540Z,94672.48
2019-03-17T19:34:08.251Z,94672.83
2019-03-17T19:36:37.761Z,94670.53
2019-03-17T19:39:07.764Z,94669.52
2019-03-17T19:41:38.450Z,94665.26
2019-03-17T19:44:08.734Z,94648.08
2019-03-17T19:46:39.522Z,94668.06
2019-03-17T19:49:09.123Z,94660.34
2019-03-17T19:51:38.728Z,94670.48
2019-03-17T19:54:08.224Z,94669.97
2019-03-17T19:56:37.835Z,94674.22
2019-03-17T19:59:07.642Z,94667.43
2019-03-17T20:01:37.132Z,94669.11
2019-03-17T20:04:06.719Z,94666.48
2019-03-17T20:06:36.294Z,94667.07
2019-03-17T20:09:07.607Z,94663.98
2019-03-17T20:11:38.469Z,94670.38
2019-03-17T20:14:08.039Z,94673.23
2019-03-17T20:16:37.658Z,94669.88
2019-03-17T20:19:08.733Z,94674.30
2019-03-17T20:21:39.964Z,94667.35
2019-03-17T20:24:10.777Z,94671.63
2019-03-17T20:26:40.420Z,94674.98
2019-03-17T20:29:09.984Z,94676.02
2019-03-17T20:31:39.784Z,94680.17
2019-03-17T20:34:09.501Z,94678.61
2019-03-17T20:36:39.179Z,94670.83
2019-03-17T20:39:08.878Z,94672.13
2019-03-17T20:41:38.603Z,94667.08
2019-03-17T20:44:08.183Z,94658.20
2019-03-17T20:46:37.790Z,94661.27
2019-03-17T20:49:07.363Z,94670.58
2019-03-17T20:51:37.125Z,94672.94
2019-03-17T20:54:06.903Z,94665.78
2019-03-17T20:56:36.386Z,94683.22
2019-03-17T20:59:06.180Z,94682.52
2019-03-17T21:01:35.968Z,94692.89
2019-03-17T21:04:05.948Z,94685.59
2019-03-17T21:06:35.585Z,94690.65
2019-03-17T21:09:07.372Z,94685.60
2019-03-17T21:11:36.941Z,94690.88
2019-03-17T21:14:06.506Z,94691.17
2019-03-17T21:16:36.119Z,94694.94
2019-03-17T21:19:05.763Z,94692.72
2019-03-17T21:21:35.444Z,94696.31
2019-03-17T21:24:05.030Z,94694.23
2019-03-17T21:26:34.579Z,94686.54
2019-03-17T21:29:04.323Z,94693.73
2019-03-17T21:31:33.808Z,94704.11
2019-03-17T21:34:03.472Z,94698.59
2019-03-17T21:36:33.033Z,94704.70
2019-03-17T21:39:02.513Z,94707.53
2019-03-17T21:41:32.317Z,94710.22
2019-03-17T21:44:01.822Z,94715.81
2019-03-17T21:46:31.405Z,94712.48
2019-03-17T21:49:00.951Z,94719.89
2019-03-17T21:51:31.836Z,94727.31
2019-03-17T21:54:01.389Z,94723.56
2019-03-17T21:56:30.954Z,94731.81
2019-03-17T21:59:00.400Z,94724.24
2019-03-17T22:01:30.022Z,94737.62
2019-03-17T22:04:00.590Z,94733.63
2019-03-17T22:06:30.158Z,94739.59
2019-03-17T22:08:59.851Z,94747.16
2019-03-17T22:11:29.593Z,94742.22
2019-03-17T22:14:11.167Z,94739.87
2019-03-17T22:16:30.355Z,94728.16
2019-03-17T22:19:00.132Z,94745.13
2019-03-17T22:21:31.107Z,94744.08
2019-03-17T22:24:00.631Z,94737.59
2019-03-17T22:26:30.077Z,94737.36
2019-03-17T22:28:59.555Z,94745.20
2019-03-17T22:31:29.270Z,94739.88
2019-03-17T22:33:58.704Z,94742.57
2019-03-17T22:36:28.246Z,94749.80
2019-03-17T22:38:57.682Z,94738.53
2019-03-17T22:41:27.334Z,94736.07
2019-03-17T22:43:56.776Z,94748.23
2019-03-17T22:46:26.256Z,94747.29
2019-03-17T22:48:55.819Z,94759.20
2019-03-17T22:51:25.575Z,94748.61
2019-03-17T22:53:55.159Z,94750.67
2019-03-17T22:56:24.798Z,94754.66
2019-03-17T22:58:54.652Z,94755.95
2019-03-17T23:01:24.278Z,94756.48
2019-03-17T23:03:54.186Z,94761.82
2019-03-17T23:06:23.793Z,94761.17
2019-03-17T23:08:54.608Z,94762.39
2019-03-17T23:11:24.099Z,94756.14
2019-03-17T23:13:53.528Z,94761.74
2019-03-17T23:16:23.074Z,94767.19
2019-03-17T23:18:52.503Z,94755.08
2019-03-17T23:21:21.994Z,94770.64
2019-03-17T23:23:51.424Z,94756.70
2019-03-17T23:26:20.924Z,94762.83
2019-03-17T23:28:50.478Z,94773.70
2019-03-17T23:31:20.261Z,94772.14
2019-03-17T23:33:49.680Z,94772.24
2019-03-17T23:36:19.111Z,94776.30
2019-03-17T23:38:48.614Z,94775.10
2019-03-17T23:41:18.103Z,94775.67
2019-03-17T23:43:48.769Z,94771.70
2019-03-17T23:46:18.236Z,94770.53
2019-03-17T23:48:47.730Z,94771.41
2019-03-17T23:51:17.445Z,94769.66
2019-03-17T23:53:46.894Z,94770.23
2019-03-17T23:56:16.450Z,94773.50
2019-03-17T23:58:45.984Z,94766.09
